Ouzinkie, AK (99644)

1:16 PM AKDT on September 01, 2015 (GMT -0800)
Akhiok AP, Akhiok, AK | | Change Station
CLOSE
Current Station
Airport
Location: Akhiok AP, Akhiok, AK,
Elevation: 43 ft
Nearby Weather Stations

Elev 43 ft 56.94 °N, 154.18 °W | Updated 20 minutes ago

Clear
Clear
58 °F
Feels Like 58 °F
N
17
Wind Variable Wind from West

Today
High -- | Low -- °F
--% Chance of Precip.
Yesterday
High -- | Low -- °F
Precip. -- in
7:15 AM 9:11 PM
Waning Gibbous, 86% visible
Pressure 30.07 in
Visibility 10.0 miles
Clouds Clear
Dew Point 34 °F
Humidity 41%
Rainfall 0.00 in
Snow Depth Not available.
UV 5 out of 12
Pollen Not available.
Air Quality Not available.
Flu Activity Not available.
METAR PAKH 012056Z AUTO 27015KT 10SM CLR 14/01 A3006 RMK AO2 TSNO 5//// 6//// T01440011 SLP182 $
Pressure 30.07 in
Visibility 10.0 miles
Clouds Clear
Dew Point 34 °F
Humidity 41%
Rainfall 0.00 in
Snow Depth Not available.
UV 5 out of 12
Pollen Not available.
Air Quality Not available.
Flu Activity Not available.
METAR PAKH 012056Z AUTO 27015KT 10SM CLR 14/01 A3006 RMK AO2 TSNO 5//// 6//// T01440011 SLP182 $

10-Day Weather Forecast

×

Almanac

Astronomy

Sep. 01, 2015 Rise Set
Actual Time
Civil Twilight
Nautical Twilight
Astronomical Twilight
Moon
Length of Visible Light
Length of Day
Tomorrow will be .
, % of the Moon is Illuminated

Today's Extremes

State Highs State Lows

Community

WunderPhotos

Upload Photos

1,851,617 photos uploaded!

WunderBlogs® & News

Nearby

Air Quality

  Air Quality AQ Index Pollutant
Not available.

Snow Depth

Station Depth Elevation

Earthquake Activity

City Distance Mag. Time & Date
Minimum magnitude displayed is 2.5.

Coastal Water Temperatures

Place Temperature

Stations

Nearby Weather Stations

Station Location Temp. Windchill Dew Point Humidity Wind Precip. Elev Updated Type